Time;durP1;ratioP1;P1;durP2;ratioP2;P2;SDS_P1;SDS_P2;PMS_P1;PMS_P2;Temp;Humidity;BMP_temperature;BMP_pressure;BME280_temperature;BME280_humidity;BME280_pressure;Samples;Min_cycle;Max_cycle;Signal;HPM_P1;HPM_P2
2021/05/21 00:00:05;;;;;;;24.30;4.72;;;;;;;;;;1474350;40;20464;-80
2021/05/21 00:01:10;;;;;;;24.05;4.45;;;;;;;;;;1469563;40;20394;-80
2021/05/21 00:02:12;;;;;;;22.17;4.57;;;;;;;;;;1469963;40;20489;-80
2021/05/21 00:03:14;;;;;;;23.02;4.38;;;;;;;;;;1478169;40;20707;-79
2021/05/21 00:04:15;;;;;;;20.08;4.43;;;;;;;;;;1474020;40;20478;-80
2021/05/21 00:05:17;;;;;;;24.88;4.85;;;;;;;;;;1473972;40;20424;-80
2021/05/21 00:06:19;;;;;;;26.05;4.72;;;;;;;;;;1468182;40;20402;-80
2021/05/21 00:07:21;;;;;;;22.67;3.28;;;;;;;;;;1465735;40;20471;-80
2021/05/21 00:08:25;;;;;;;22.90;4.40;;;;;;;;;;1465644;40;20411;-80
2021/05/21 00:09:26;;;;;;;20.33;4.20;;;;;;;;;;1462247;40;20455;-80
2021/05/21 00:10:28;;;;;;;23.80;3.83;;;;;;;;;;1465803;40;20395;-80
2021/05/21 00:11:30;;;;;;;21.80;3.88;;;;;;;;;;1469607;40;20402;-79
2021/05/21 00:12:32;;;;;;;25.67;4.10;;;;;;;;;;1477720;40;20393;-80
2021/05/21 00:13:34;;;;;;;24.20;4.70;;;;;;;;;;1473898;40;20416;-81
2021/05/21 00:14:38;;;;;;;20.73;3.80;;;;;;;;;;1473367;40;20694;-80
2021/05/21 00:15:40;;;;;;;26.05;4.30;;;;;;;;;;1474030;40;20441;-80
2021/05/21 00:16:45;;;;;;;25.05;4.38;;;;;;;;;;1468903;40;20401;-80
2021/05/21 00:17:47;;;;;;;20.80;4.20;;;;;;;;;;1469895;40;20937;-80
2021/05/21 00:18:51;;;;;;;22.08;4.40;;;;;;;;;;1473998;40;20444;-80
2021/05/21 00:19:53;;;;;;;27.85;5.03;;;;;;;;;;1473819;40;20420;-80
2021/05/21 00:20:57;;;;;;;25.35;4.53;;;;;;;;;;1471332;40;21091;-80
2021/05/21 00:21:59;;;;;;;23.70;4.55;;;;;;;;;;1466584;40;20411;-79
2021/05/21 00:23:03;;;;;;;19.88;4.32;;;;;;;;;;1465717;40;20403;-80
2021/05/21 00:24:06;;;;;;;25.05;4.32;;;;;;;;;;1470272;40;20655;-81
2021/05/21 00:25:10;;;;;;;25.88;4.93;;;;;;;;;;1469643;40;20402;-79
2021/05/21 00:26:12;;;;;;;27.73;5.22;;;;;;;;;;1470091;40;20402;-80
2021/05/21 00:27:16;;;;;;;20.02;3.88;;;;;;;;;;1466906;40;20411;-80
2021/05/21 00:28:18;;;;;;;25.25;4.72;;;;;;;;;;1466163;40;20418;-80
2021/05/21 00:29:22;;;;;;;20.00;4.57;;;;;;;;;;1473059;40;20457;-80
2021/05/21 00:30:23;;;;;;;22.50;4.10;;;;;;;;;;1469972;40;20859;-79
2021/05/21 00:31:25;;;;;;;24.73;5.50;;;;;;;;;;1478267;40;20644;-79
2021/05/21 00:32:26;;;;;;;22.73;4.85;;;;;;;;;;1473313;40;20828;-80
2021/05/21 00:33:29;;;;;;;24.15;4.95;;;;;;;;;;1473703;40;20412;-79
2021/05/21 00:34:30;;;;;;;26.15;5.13;;;;;;;;;;1474201;40;20609;-80
2021/05/21 00:35:32;;;;;;;29.10;5.73;;;;;;;;;;1474148;40;20508;-79
2021/05/21 00:36:34;;;;;;;24.67;5.50;;;;;;;;;;1476310;40;20398;-80
2021/05/21 00:37:36;;;;;;;23.85;5.05;;;;;;;;;;1478353;40;20454;-81
2021/05/21 00:38:38;;;;;;;25.17;5.38;;;;;;;;;;1477385;40;20743;-81
2021/05/21 00:39:39;;;;;;;27.60;5.35;;;;;;;;;;1480975;40;20744;-77
2021/05/21 00:40:41;;;;;;;23.83;6.10;;;;;;;;;;1482601;40;20422;-80
2021/05/21 00:41:42;;;;;;;27.17;5.60;;;;;;;;;;1481818;40;20567;-79
2021/05/21 00:42:44;;;;;;;28.75;4.88;;;;;;;;;;1482490;40;20418;-79
2021/05/21 00:43:45;;;;;;;28.42;4.70;;;;;;;;;;1479247;40;20503;-80
2021/05/21 00:44:54;;;;;;;28.25;5.47;;;;;;;;;;1482107;40;20402;-80
2021/05/21 00:45:55;;;;;;;27.75;5.85;;;;;;;;;;1481002;40;20520;-79
2021/05/21 00:46:57;;;;;;;28.02;5.05;;;;;;;;;;1480855;40;20802;-80
2021/05/21 00:47:59;;;;;;;28.53;5.27;;;;;;;;;;1475962;40;20645;-79
2021/05/21 00:49:00;;;;;;;26.63;5.00;;;;;;;;;;1474421;40;20419;-80
2021/05/21 00:50:02;;;;;;;30.88;5.45;;;;;;;;;;1478240;40;20457;-80
2021/05/21 00:51:04;;;;;;;22.40;4.65;;;;;;;;;;1477373;40;20806;-81
2021/05/21 00:52:06;;;;;;;28.60;4.68;;;;;;;;;;1475013;40;20408;-80
2021/05/21 00:53:10;;;;;;;30.88;5.28;;;;;;;;;;1477182;40;20409;-81
2021/05/21 00:54:19;;;;;;;36.40;5.97;;;;;;;;;;1477489;40;20437;-81
2021/05/21 00:55:21;;;;;;;35.28;5.57;;;;;;;;;;1478300;40;20406;-80
2021/05/21 00:56:22;;;;;;;28.10;4.88;;;;;;;;;;1478033;40;20673;-81
2021/05/21 00:57:24;;;;;;;28.77;6.18;;;;;;;;;;1478083;40;20517;-80
2021/05/21 00:58:27;;;;;;;28.23;5.35;;;;;;;;;;1473778;40;20467;-80
2021/05/21 00:59:29;;;;;;;25.98;5.88;;;;;;;;;;1477505;40;20418;-81
2021/05/21 01:00:30;;;;;;;31.08;5.18;;;;;;;;;;1478549;40;20402;-81
2021/05/21 01:01:33;;;;;;;28.27;5.90;;;;;;;;;;1477664;40;20492;-81
2021/05/21 01:02:34;;;;;;;27.92;5.88;;;;;;;;;;1473425;40;20448;-81
2021/05/21 01:03:39;;;;;;;34.03;5.68;;;;;;;;;;1473316;40;21000;-81
2021/05/21 01:04:41;;;;;;;31.80;6.10;;;;;;;;;;1477681;40;20422;-82
2021/05/21 01:05:42;;;;;;;28.88;5.07;;;;;;;;;;1476769;40;20402;-81
2021/05/21 01:06:44;;;;;;;30.00;6.13;;;;;;;;;;1475409;40;20410;-82
2021/05/21 01:07:46;;;;;;;32.88;5.70;;;;;;;;;;1477851;40;20462;-82
2021/05/21 01:08:47;;;;;;;28.13;5.40;;;;;;;;;;1473810;40;20469;-81
2021/05/21 01:09:50;;;;;;;36.63;5.43;;;;;;;;;;1477622;40;20414;-81
2021/05/21 01:10:53;;;;;;;28.48;5.22;;;;;;;;;;1477515;40;20787;-82
2021/05/21 01:11:54;;;;;;;28.65;5.30;;;;;;;;;;1471653;40;20477;-81
2021/05/21 01:12:56;;;;;;;25.65;5.38;;;;;;;;;;1461565;40;20857;-80
2021/05/21 01:13:58;;;;;;;24.55;4.43;;;;;;;;;;1469335;40;20448;-79
2021/05/21 01:15:00;;;;;;;31.65;6.15;;;;;;;;;;1473699;40;21030;-80
2021/05/21 01:16:02;;;;;;;31.02;5.75;;;;;;;;;;1473940;40;20416;-80
2021/05/21 01:17:04;;;;;;;27.15;4.65;;;;;;;;;;1474142;40;20407;-80
2021/05/21 01:18:07;;;;;;;32.08;5.90;;;;;;;;;;1473446;40;20468;-80
2021/05/21 01:19:08;;;;;;;30.90;5.22;;;;;;;;;;1473546;40;20438;-80
2021/05/21 01:20:11;;;;;;;28.40;4.88;;;;;;;;;;1477883;40;20402;-80
2021/05/21 01:21:13;;;;;;;28.38;5.70;;;;;;;;;;1475671;40;20407;-81
2021/05/21 01:22:16;;;;;;;28.92;5.25;;;;;;;;;;1477884;40;20418;-80
2021/05/21 01:23:17;;;;;;;29.08;5.18;;;;;;;;;;1470162;40;20423;-81
2021/05/21 01:24:20;;;;;;;30.38;4.97;;;;;;;;;;1470201;40;20422;-81
2021/05/21 01:25:21;;;;;;;31.42;5.50;;;;;;;;;;1474972;40;20453;-81
2021/05/21 01:26:24;;;;;;;31.08;5.68;;;;;;;;;;1474659;40;20419;-81
2021/05/21 01:27:27;;;;;;;25.95;5.40;;;;;;;;;;1479395;40;20422;-80
2021/05/21 01:28:28;;;;;;;38.40;6.28;;;;;;;;;;1479098;40;20417;-83
2021/05/21 01:29:32;;;;;;;24.98;4.15;;;;;;;;;;1474950;40;20805;-81
2021/05/21 01:30:33;;;;;;;26.67;5.00;;;;;;;;;;1475142;40;20408;-81
2021/05/21 01:31:35;;;;;;;37.20;5.50;;;;;;;;;;1478184;40;20449;-81
2021/05/21 01:32:37;;;;;;;26.00;5.53;;;;;;;;;;1475093;40;20419;-81
2021/05/21 01:33:40;;;;;;;31.17;5.95;;;;;;;;;;1475061;40;20403;-81
2021/05/21 01:34:42;;;;;;;26.85;5.65;;;;;;;;;;1474508;40;20427;-81
2021/05/21 01:35:44;;;;;;;27.65;5.00;;;;;;;;;;1475702;40;20416;-81
2021/05/21 01:36:47;;;;;;;27.08;5.32;;;;;;;;;;1477548;40;20425;-80
2021/05/21 01:37:50;;;;;;;34.80;5.68;;;;;;;;;;1477124;40;20497;-79
2021/05/21 01:38:56;;;;;;;23.67;5.07;;;;;;;;;;1473909;40;20421;-80
2021/05/21 01:39:57;;;;;;;27.98;6.00;;;;;;;;;;1474723;40;20811;-80
2021/05/21 01:40:59;;;;;;;34.97;5.55;;;;;;;;;;1473845;40;21070;-82
2021/05/21 01:42:02;;;;;;;29.80;5.15;;;;;;;;;;1475909;40;20410;-79
2021/05/21 01:43:04;;;;;;;32.22;5.93;;;;;;;;;;1478100;40;20414;-79
2021/05/21 01:44:09;;;;;;;28.63;5.00;;;;;;;;;;1477558;40;20543;-79
2021/05/21 01:45:11;;;;;;;29.88;5.80;;;;;;;;;;1478705;40;20418;-80
2021/05/21 01:46:13;;;;;;;30.95;5.63;;;;;;;;;;1478997;40;20409;-79
2021/05/21 01:47:15;;;;;;;30.35;5.45;;;;;;;;;;1478052;40;20409;-79
2021/05/21 01:48:17;;;;;;;23.83;5.40;;;;;;;;;;1474148;40;20411;-79
2021/05/21 01:49:18;;;;;;;36.10;6.28;;;;;;;;;;1474162;40;20407;-80
2021/05/21 01:50:20;;;;;;;30.17;5.20;;;;;;;;;;1477677;40;20410;-79
2021/05/21 01:51:22;;;;;;;28.05;5.25;;;;;;;;;;1475811;40;20435;-80
2021/05/21 01:52:24;;;;;;;31.52;5.18;;;;;;;;;;1478823;40;20492;-80
2021/05/21 01:53:26;;;;;;;28.40;5.00;;;;;;;;;;1473927;40;20408;-80
2021/05/21 01:54:29;;;;;;;26.40;5.47;;;;;;;;;;1470236;40;20507;-80
2021/05/21 01:55:30;;;;;;;26.98;5.70;;;;;;;;;;1474100;40;21147;-79
2021/05/21 01:56:32;;;;;;;27.00;5.65;;;;;;;;;;1476410;40;20464;-79
2021/05/21 01:57:35;;;;;;;28.00;5.47;;;;;;;;;;1470110;40;20453;-80
2021/05/21 01:58:37;;;;;;;33.72;5.90;;;;;;;;;;1474305;40;20408;-79
2021/05/21 01:59:39;;;;;;;29.98;6.10;;;;;;;;;;1478951;40;20715;-81
2021/05/21 02:00:40;;;;;;;27.77;4.90;;;;;;;;;;1478310;40;20726;-80
2021/05/21 02:01:42;;;;;;;39.53;6.00;;;;;;;;;;1478331;40;20418;-81
2021/05/21 02:02:44;;;;;;;22.67;5.17;;;;;;;;;;1473514;40;20456;-81
2021/05/21 02:03:45;;;;;;;28.90;5.60;;;;;;;;;;1474144;40;20427;-80
2021/05/21 02:04:47;;;;;;;32.78;5.90;;;;;;;;;;1477833;40;20398;-80
2021/05/21 02:05:48;;;;;;;32.83;5.07;;;;;;;;;;1478078;40;20517;-80
2021/05/21 02:06:50;;;;;;;31.67;5.57;;;;;;;;;;1476171;40;20432;-80
2021/05/21 02:07:52;;;;;;;26.80;4.70;;;;;;;;;;1476469;40;20404;-79
2021/05/21 02:08:54;;;;;;;33.15;6.57;;;;;;;;;;1465532;40;20450;-81
2021/05/21 02:10:02;;;;;;;26.02;4.57;;;;;;;;;;1472281;40;20805;-80
2021/05/21 02:11:04;;;;;;;29.02;5.15;;;;;;;;;;1473586;40;20832;-80
2021/05/21 02:12:06;;;;;;;23.80;5.03;;;;;;;;;;1474083;40;20723;-80
2021/05/21 02:13:07;;;;;;;26.27;6.25;;;;;;;;;;1473915;40;20423;-80
2021/05/21 02:14:09;;;;;;;26.58;6.00;;;;;;;;;;1473475;40;20798;-80
2021/05/21 02:15:11;;;;;;;28.95;5.97;;;;;;;;;;1474627;40;20454;-80
2021/05/21 02:16:13;;;;;;;29.52;4.65;;;;;;;;;;1470105;40;20524;-80
2021/05/21 02:17:15;;;;;;;24.15;5.30;;;;;;;;;;1470070;40;20468;-80
2021/05/21 02:18:16;;;;;;;27.90;4.80;;;;;;;;;;1478280;40;20437;-80
2021/05/21 02:19:18;;;;;;;25.23;4.05;;;;;;;;;;1477966;40;20418;-80
2021/05/21 02:20:20;;;;;;;28.55;6.43;;;;;;;;;;1474461;40;20412;-79
2021/05/21 02:21:22;;;;;;;34.22;6.10;;;;;;;;;;1471663;40;20520;-81
2021/05/21 02:22:25;;;;;;;27.85;5.05;;;;;;;;;;1473887;40;20790;-80
2021/05/21 02:23:28;;;;;;;26.80;5.88;;;;;;;;;;1469642;40;20734;-79
2021/05/21 02:24:29;;;;;;;20.52;4.43;;;;;;;;;;1474051;40;20428;-79
2021/05/21 02:25:32;;;;;;;26.60;4.97;;;;;;;;;;1470532;40;20433;-79
2021/05/21 02:26:34;;;;;;;28.35;5.57;;;;;;;;;;1470303;40;20422;-79
2021/05/21 02:27:36;;;;;;;27.17;5.13;;;;;;;;;;1474279;40;20690;-79
2021/05/21 02:28:37;;;;;;;31.33;5.63;;;;;;;;;;1474494;40;20435;-79
2021/05/21 02:29:39;;;;;;;29.02;5.30;;;;;;;;;;1474365;40;20833;-79
2021/05/21 02:30:41;;;;;;;26.45;6.43;;;;;;;;;;1474187;40;20509;-81
2021/05/21 02:31:42;;;;;;;19.52;4.05;;;;;;;;;;1469927;40;20782;-81
2021/05/21 02:32:44;;;;;;;24.85;4.70;;;;;;;;;;1470112;40;20421;-81
2021/05/21 02:33:45;;;;;;;24.80;4.93;;;;;;;;;;1470039;40;20488;-79
2021/05/21 02:34:47;;;;;;;29.63;5.78;;;;;;;;;;1473084;40;20452;-80
2021/05/21 02:35:48;;;;;;;25.85;5.07;;;;;;;;;;1472515;40;20675;-79
2021/05/21 02:36:50;;;;;;;23.13;4.82;;;;;;;;;;1469175;40;20414;-79
2021/05/21 02:37:52;;;;;;;23.02;5.35;;;;;;;;;;1471810;40;20394;-80
2021/05/21 02:38:54;;;;;;;17.10;3.85;;;;;;;;;;1470477;40;20456;-79
2021/05/21 02:39:56;;;;;;;24.52;5.80;;;;;;;;;;1470203;40;20507;-79
2021/05/21 02:40:58;;;;;;;30.20;5.65;;;;;;;;;;1470358;40;20445;-79
2021/05/21 02:41:59;;;;;;;24.42;5.43;;;;;;;;;;1471830;40;20412;-79
2021/05/21 02:43:01;;;;;;;28.05;4.68;;;;;;;;;;1473609;40;20457;-79
2021/05/21 02:44:03;;;;;;;24.42;4.68;;;;;;;;;;1473942;40;20439;-79
2021/05/21 02:45:06;;;;;;;25.63;5.30;;;;;;;;;;1478307;40;20772;-79
2021/05/21 02:46:07;;;;;;;25.73;4.55;;;;;;;;;;1478081;40;20500;-79
2021/05/21 02:47:09;;;;;;;26.73;5.75;;;;;;;;;;1473026;40;20840;-79
2021/05/21 02:48:11;;;;;;;27.15;5.32;;;;;;;;;;1473872;40;20757;-80
2021/05/21 02:49:19;;;;;;;27.23;4.75;;;;;;;;;;1473838;40;20428;-79
2021/05/21 02:50:20;;;;;;;24.85;5.60;;;;;;;;;;1473804;40;20408;-80
2021/05/21 02:51:22;;;;;;;24.95;4.60;;;;;;;;;;1471836;40;20478;-79
2021/05/21 02:52:24;;;;;;;22.63;4.93;;;;;;;;;;1469787;40;20898;-80
2021/05/21 02:53:26;;;;;;;21.98;3.75;;;;;;;;;;1470562;40;20405;-79
2021/05/21 02:54:28;;;;;;;28.83;3.92;;;;;;;;;;1469759;40;20434;-79
2021/05/21 02:55:29;;;;;;;24.65;4.35;;;;;;;;;;1470123;40;20416;-79
2021/05/21 02:56:31;;;;;;;27.20;4.55;;;;;;;;;;1470580;40;20429;-80
2021/05/21 02:57:32;;;;;;;18.50;3.83;;;;;;;;;;1469944;40;20402;-79
2021/05/21 02:58:34;;;;;;;24.52;4.20;;;;;;;;;;1469790;40;20424;-79
2021/05/21 02:59:36;;;;;;;24.95;4.72;;;;;;;;;;1472733;40;20540;-79
2021/05/21 03:00:37;;;;;;;21.80;4.55;;;;;;;;;;1473971;40;20838;-79
2021/05/21 03:01:39;;;;;;;22.27;3.45;;;;;;;;;;1474220;40;20837;-79
2021/05/21 03:02:41;;;;;;;22.55;4.63;;;;;;;;;;1473867;40;20408;-79
2021/05/21 03:03:42;;;;;;;26.55;4.75;;;;;;;;;;1474341;40;20408;-81
2021/05/21 03:04:44;;;;;;;16.70;3.58;;;;;;;;;;1470145;40;20429;-80
2021/05/21 03:05:46;;;;;;;19.13;4.00;;;;;;;;;;1472824;40;20441;-81
2021/05/21 03:06:47;;;;;;;25.40;4.97;;;;;;;;;;1480883;40;20406;-79
2021/05/21 03:07:54;;;;;;;25.75;3.92;;;;;;;;;;1477373;40;20402;-81
2021/05/21 03:08:56;;;;;;;26.75;4.55;;;;;;;;;;1475458;40;20406;-80
2021/05/21 03:09:58;;;;;;;22.83;3.95;;;;;;;;;;1477816;40;20427;-80
2021/05/21 03:11:00;;;;;;;25.25;5.35;;;;;;;;;;1473358;40;20719;-80
2021/05/21 03:12:02;;;;;;;27.13;4.43;;;;;;;;;;1471457;40;20445;-79
2021/05/21 03:13:04;;;;;;;25.25;4.55;;;;;;;;;;1476143;40;20428;-79
2021/05/21 03:14:05;;;;;;;26.25;4.22;;;;;;;;;;1475281;40;20742;-80
2021/05/21 03:15:08;;;;;;;23.08;4.78;;;;;;;;;;1470668;40;20869;-80
2021/05/21 03:16:10;;;;;;;25.23;4.18;;;;;;;;;;1474513;40;20455;-78
2021/05/21 03:17:12;;;;;;;20.02;4.22;;;;;;;;;;1474485;40;20427;-80
2021/05/21 03:18:22;;;;;;;28.30;4.57;;;;;;;;;;1475387;40;20458;-79
2021/05/21 03:19:25;;;;;;;23.65;4.35;;;;;;;;;;1475274;40;20415;-80
2021/05/21 03:20:27;;;;;;;20.52;3.97;;;;;;;;;;1474544;40;20460;-81
2021/05/21 03:21:28;;;;;;;26.17;4.70;;;;;;;;;;1473687;40;20465;-80
2021/05/21 03:22:30;;;;;;;24.40;3.75;;;;;;;;;;1474184;40;20392;-80
2021/05/21 03:23:32;;;;;;;20.40;4.13;;;;;;;;;;1474373;40;20411;-80
2021/05/21 03:24:34;;;;;;;18.00;4.32;;;;;;;;;;1474172;40;20431;-80
2021/05/21 03:25:36;;;;;;;23.63;4.32;;;;;;;;;;1474211;40;20528;-79
2021/05/21 03:26:38;;;;;;;21.23;3.87;;;;;;;;;;1473740;40;20563;-79
2021/05/21 03:27:40;;;;;;;23.35;3.95;;;;;;;;;;1474280;40;20917;-79
2021/05/21 03:28:41;;;;;;;20.55;4.00;;;;;;;;;;1469810;40;20842;-79
2021/05/21 03:29:43;;;;;;;23.92;4.18;;;;;;;;;;1462366;40;20706;-81
2021/05/21 03:30:45;;;;;;;26.30;4.18;;;;;;;;;;1462744;40;20416;-81
2021/05/21 03:31:47;;;;;;;22.38;4.45;;;;;;;;;;1470818;40;20449;-81
2021/05/21 03:32:48;;;;;;;22.23;4.28;;;;;;;;;;1475082;40;20408;-80
2021/05/21 03:33:50;;;;;;;28.02;5.38;;;;;;;;;;1474803;40;20424;-80
2021/05/21 03:34:52;;;;;;;25.75;5.13;;;;;;;;;;1474177;40;20435;-80
2021/05/21 03:35:54;;;;;;;30.73;4.45;;;;;;;;;;1473809;40;20749;-80
2021/05/21 03:36:55;;;;;;;16.85;4.22;;;;;;;;;;1469243;40;20481;-79
2021/05/21 03:37:57;;;;;;;26.77;5.93;;;;;;;;;;1473725;40;20456;-80
2021/05/21 03:38:59;;;;;;;27.10;4.55;;;;;;;;;;1474314;40;20392;-80
2021/05/21 03:40:01;;;;;;;21.88;4.15;;;;;;;;;;1474348;40;20444;-80
2021/05/21 03:41:02;;;;;;;21.92;4.10;;;;;;;;;;1474422;40;20665;-80
2021/05/21 03:42:06;;;;;;;24.48;4.63;;;;;;;;;;1475158;40;20407;-81
2021/05/21 03:43:10;;;;;;;21.42;4.00;;;;;;;;;;1474865;40;20578;-79
2021/05/21 03:44:11;;;;;;;21.60;3.63;;;;;;;;;;1473814;40;20408;-81
2021/05/21 03:45:13;;;;;;;21.05;5.30;;;;;;;;;;1474658;40;20412;-80
2021/05/21 03:46:15;;;;;;;21.70;4.30;;;;;;;;;;1473997;40;20712;-80
2021/05/21 03:47:19;;;;;;;22.63;4.90;;;;;;;;;;1474387;40;20408;-79
2021/05/21 03:48:20;;;;;;;23.20;5.05;;;;;;;;;;1474716;40;20474;-79
2021/05/21 03:49:22;;;;;;;18.10;4.22;;;;;;;;;;1474286;40;20435;-79
2021/05/21 03:50:24;;;;;;;22.42;4.63;;;;;;;;;;1469390;40;20469;-80
2021/05/21 03:51:25;;;;;;;22.85;3.72;;;;;;;;;;1469521;40;20414;-81
2021/05/21 03:52:27;;;;;;;20.55;3.60;;;;;;;;;;1474521;40;20400;-80
2021/05/21 03:53:30;;;;;;;22.00;4.20;;;;;;;;;;1470046;40;20444;-80
2021/05/21 03:54:31;;;;;;;24.67;4.38;;;;;;;;;;1469842;40;20618;-79
2021/05/21 03:55:33;;;;;;;26.40;4.83;;;;;;;;;;1473939;40;20553;-79
2021/05/21 03:56:34;;;;;;;23.92;4.70;;;;;;;;;;1469689;40;20425;-80
2021/05/21 03:57:37;;;;;;;26.90;4.05;;;;;;;;;;1474154;40;20523;-80
2021/05/21 03:58:39;;;;;;;27.35;5.00;;;;;;;;;;1473628;40;20420;-80
2021/05/21 03:59:41;;;;;;;19.25;3.83;;;;;;;;;;1465673;40;20416;-80
2021/05/21 04:00:42;;;;;;;19.83;3.95;;;;;;;;;;1461560;40;20911;-79
2021/05/21 04:01:47;;;;;;;22.17;4.65;;;;;;;;;;1469113;40;20429;-79
2021/05/21 04:02:50;;;;;;;20.53;3.83;;;;;;;;;;1468935;40;20556;-81
2021/05/21 04:03:55;;;;;;;22.50;4.07;;;;;;;;;;1465834;40;20410;-79
2021/05/21 04:04:56;;;;;;;32.17;5.10;;;;;;;;;;1465297;40;20427;-80
2021/05/21 04:05:58;;;;;;;26.58;3.63;;;;;;;;;;1467944;40;20433;-79
2021/05/21 04:06:59;;;;;;;18.48;3.63;;;;;;;;;;1473654;40;20428;-80
2021/05/21 04:08:01;;;;;;;23.77;4.00;;;;;;;;;;1473962;40;20415;-79
2021/05/21 04:09:07;;;;;;;22.05;4.55;;;;;;;;;;1469562;40;20877;-79
2021/05/21 04:10:10;;;;;;;19.10;3.45;;;;;;;;;;1475164;40;20416;-79
2021/05/21 04:11:12;;;;;;;22.75;4.65;;;;;;;;;;1477816;40;20410;-79
2021/05/21 04:12:13;;;;;;;25.45;4.18;;;;;;;;;;1474754;40;20884;-79
2021/05/21 04:13:15;;;;;;;23.35;4.50;;;;;;;;;;1469759;40;20498;-79
2021/05/21 04:14:17;;;;;;;22.45;3.65;;;;;;;;;;1475562;40;20437;-80
2021/05/21 04:15:19;;;;;;;22.98;4.28;;;;;;;;;;1478529;40;20453;-79
2021/05/21 04:16:20;;;;;;;21.10;4.82;;;;;;;;;;1477865;40;20493;-81
2021/05/21 04:17:23;;;;;;;24.95;4.75;;;;;;;;;;1469826;40;20628;-79
2021/05/21 04:18:24;;;;;;;26.10;4.20;;;;;;;;;;1473729;40;20419;-81
2021/05/21 04:19:26;;;;;;;21.58;4.32;;;;;;;;;;1478082;40;20414;-80
2021/05/21 04:20:28;;;;;;;24.23;5.03;;;;;;;;;;1477579;40;20410;-80
2021/05/21 04:21:29;;;;;;;25.88;4.03;;;;;;;;;;1475503;40;20447;-80
2021/05/21 04:22:31;;;;;;;23.63;4.03;;;;;;;;;;1474105;40;20563;-79
2021/05/21 04:23:38;;;;;;;19.13;4.63;;;;;;;;;;1478004;40;21042;-78
2021/05/21 04:24:40;;;;;;;17.48;3.45;;;;;;;;;;1477791;40;20430;-79
2021/05/21 04:25:42;;;;;;;21.67;4.22;;;;;;;;;;1477924;40;20458;-80
2021/05/21 04:26:44;;;;;;;25.77;4.88;;;;;;;;;;1475551;40;20476;-79
2021/05/21 04:27:49;;;;;;;20.25;3.83;;;;;;;;;;1473515;40;20697;-81
2021/05/21 04:28:51;;;;;;;20.23;4.03;;;;;;;;;;1474320;40;20411;-80
2021/05/21 04:29:54;;;;;;;27.17;3.88;;;;;;;;;;1474155;40;20452;-79
2021/05/21 04:30:55;;;;;;;25.83;4.18;;;;;;;;;;1474449;40;20416;-79
2021/05/21 04:31:57;;;;;;;24.17;5.35;;;;;;;;;;1474358;40;20663;-80
2021/05/21 04:32:58;;;;;;;22.30;5.55;;;;;;;;;;1469725;40;20410;-79
2021/05/21 04:34:00;;;;;;;21.23;4.72;;;;;;;;;;1469799;40;20417;-78
2021/05/21 04:35:02;;;;;;;20.25;3.95;;;;;;;;;;1473770;40;20408;-80
2021/05/21 04:36:05;;;;;;;19.70;3.33;;;;;;;;;;1471017;40;20553;-79
2021/05/21 04:37:06;;;;;;;29.08;4.40;;;;;;;;;;1469831;40;21141;-79
2021/05/21 04:38:08;;;;;;;24.63;4.40;;;;;;;;;;1476141;40;20845;-79
2021/05/21 04:39:09;;;;;;;18.02;4.30;;;;;;;;;;1477693;40;20429;-79
2021/05/21 04:40:11;;;;;;;20.40;5.25;;;;;;;;;;1477604;40;20807;-79
2021/05/21 04:41:17;;;;;;;20.88;3.97;;;;;;;;;;1478012;40;20383;-80
2021/05/21 04:42:19;;;;;;;25.25;4.65;;;;;;;;;;1474248;40;20782;-79
2021/05/21 04:43:26;;;;;;;21.88;3.90;;;;;;;;;;1473141;40;20427;-79
2021/05/21 04:44:27;;;;;;;26.38;4.95;;;;;;;;;;1473928;40;20415;-79
2021/05/21 04:45:29;;;;;;;26.77;4.53;;;;;;;;;;1474342;40;20424;-79
2021/05/21 04:46:30;;;;;;;22.02;3.55;;;;;;;;;;1474169;40;20409;-79
2021/05/21 04:47:32;;;;;;;19.23;3.92;;;;;;;;;;1475322;40;20405;-79
2021/05/21 04:48:34;;;;;;;23.83;3.85;;;;;;;;;;1477618;40;20417;-79
2021/05/21 04:49:36;;;;;;;21.55;4.00;;;;;;;;;;1477716;40;20418;-80
2021/05/21 04:50:37;;;;;;;24.42;4.10;;;;;;;;;;1472650;40;20494;-80
2021/05/21 04:51:39;;;;;;;19.50;3.90;;;;;;;;;;1473027;40;20396;-79
2021/05/21 04:52:41;;;;;;;25.77;5.10;;;;;;;;;;1476527;40;20437;-80
2021/05/21 04:53:43;;;;;;;17.27;3.45;;;;;;;;;;1473812;40;20396;-79
2021/05/21 04:54:45;;;;;;;22.40;4.47;;;;;;;;;;1465299;40;20571;-79
2021/05/21 04:55:46;;;;;;;22.90;3.78;;;;;;;;;;1461638;40;20788;-79
2021/05/21 04:56:48;;;;;;;21.15;4.40;;;;;;;;;;1467258;40;20508;-81
2021/05/21 04:57:50;;;;;;;20.13;3.83;;;;;;;;;;1473843;40;20404;-82
2021/05/21 04:58:52;;;;;;;25.70;4.70;;;;;;;;;;1478042;40;20441;-81
2021/05/21 04:59:53;;;;;;;19.23;4.50;;;;;;;;;;1478676;40;20788;-79
2021/05/21 05:00:55;;;;;;;25.38;4.20;;;;;;;;;;1477941;40;20408;-79
2021/05/21 05:01:56;;;;;;;20.33;4.78;;;;;;;;;;1474391;40;20450;-79
2021/05/21 05:03:04;;;;;;;20.48;4.25;;;;;;;;;;1477838;40;20438;-80
2021/05/21 05:04:06;;;;;;;19.55;4.85;;;;;;;;;;1478183;40;20879;-80
2021/05/21 05:05:08;;;;;;;22.27;4.05;;;;;;;;;;1478459;40;20406;-80
2021/05/21 05:06:10;;;;;;;23.67;4.00;;;;;;;;;;1476133;40;20454;-79
2021/05/21 05:07:12;;;;;;;21.95;4.07;;;;;;;;;;1474186;40;20443;-79
2021/05/21 05:08:15;;;;;;;20.83;3.90;;;;;;;;;;1467204;40;20411;-79
2021/05/21 05:09:18;;;;;;;18.92;4.15;;;;;;;;;;1470287;40;20623;-79
2021/05/21 05:10:19;;;;;;;25.83;4.32;;;;;;;;;;1473907;40;20419;-79
2021/05/21 05:11:21;;;;;;;19.35;3.58;;;;;;;;;;1470027;40;20413;-79
2021/05/21 05:12:22;;;;;;;22.85;3.80;;;;;;;;;;1478213;40;20417;-79
2021/05/21 05:13:24;;;;;;;24.77;4.22;;;;;;;;;;1479362;40;20414;-80
2021/05/21 05:14:26;;;;;;;20.88;3.78;;;;;;;;;;1479059;40;20637;-80
2021/05/21 05:15:27;;;;;;;20.30;4.53;;;;;;;;;;1478897;40;20841;-80
2021/05/21 05:16:29;;;;;;;25.00;5.30;;;;;;;;;;1477633;40;20402;-80
2021/05/21 05:17:30;;;;;;;21.27;4.10;;;;;;;;;;1478997;40;20425;-80
2021/05/21 05:18:33;;;;;;;21.85;3.70;;;;;;;;;;1473735;40;20685;-80
2021/05/21 05:19:35;;;;;;;22.52;4.25;;;;;;;;;;1474478;40;20416;-80
2021/05/21 05:20:37;;;;;;;22.27;4.43;;;;;;;;;;1477661;40;20663;-80
2021/05/21 05:21:41;;;;;;;18.40;4.32;;;;;;;;;;1476811;40;20398;-80
2021/05/21 05:22:43;;;;;;;19.75;4.10;;;;;;;;;;1477308;40;20425;-79
2021/05/21 05:23:44;;;;;;;22.90;3.75;;;;;;;;;;1474976;40;20428;-80
2021/05/21 05:24:46;;;;;;;21.85;4.03;;;;;;;;;;1474931;40;20770;-80
2021/05/21 05:25:48;;;;;;;20.77;3.78;;;;;;;;;;1474366;40;20435;-80
2021/05/21 05:26:50;;;;;;;19.63;4.13;;;;;;;;;;1471407;40;20400;-81
2021/05/21 05:27:53;;;;;;;18.40;3.33;;;;;;;;;;1470671;40;20472;-81
2021/05/21 05:28:54;;;;;;;18.75;3.90;;;;;;;;;;1474211;40;20399;-80
2021/05/21 05:29:57;;;;;;;23.05;4.35;;;;;;;;;;1474697;40;20423;-80
2021/05/21 05:30:58;;;;;;;24.67;5.18;;;;;;;;;;1471943;40;20406;-80
2021/05/21 05:32:01;;;;;;;20.70;3.88;;;;;;;;;;1478972;40;20501;-80
2021/05/21 05:33:03;;;;;;;20.33;4.80;;;;;;;;;;1475307;40;20437;-80
2021/05/21 05:34:05;;;;;;;18.55;3.80;;;;;;;;;;1479456;40;20408;-80
2021/05/21 05:35:07;;;;;;;21.70;4.20;;;;;;;;;;1483777;40;20415;-81
2021/05/21 05:36:09;;;;;;;16.92;4.47;;;;;;;;;;1478589;40;20461;-80
2021/05/21 05:37:10;;;;;;;16.25;3.53;;;;;;;;;;1473073;40;20696;-80
2021/05/21 05:38:12;;;;;;;21.48;4.38;;;;;;;;;;1472827;40;20433;-79
2021/05/21 05:39:13;;;;;;;24.15;3.90;;;;;;;;;;1472346;40;20421;-80
2021/05/21 05:40:15;;;;;;;20.33;3.25;;;;;;;;;;1475408;40;20452;-79
2021/05/21 05:41:17;;;;;;;22.20;4.22;;;;;;;;;;1478193;40;20480;-80
2021/05/21 05:42:18;;;;;;;22.35;4.32;;;;;;;;;;1475728;40;20455;-80
2021/05/21 05:43:20;;;;;;;22.92;3.95;;;;;;;;;;1474908;40;20422;-80
2021/05/21 05:44:22;;;;;;;18.00;3.67;;;;;;;;;;1474948;40;20424;-80
2021/05/21 05:45:23;;;;;;;14.52;3.60;;;;;;;;;;1470280;40;20528;-80
2021/05/21 05:46:25;;;;;;;21.88;4.38;;;;;;;;;;1466259;40;20447;-80
2021/05/21 05:47:26;;;;;;;21.85;3.60;;;;;;;;;;1466422;40;20403;-79
2021/05/21 05:48:28;;;;;;;20.60;4.65;;;;;;;;;;1470805;40;20421;-80
2021/05/21 05:49:30;;;;;;;16.17;3.58;;;;;;;;;;1479297;40;20430;-80
2021/05/21 05:50:31;;;;;;;22.35;4.05;;;;;;;;;;1474101;40;20407;-81
2021/05/21 05:51:33;;;;;;;19.27;3.45;;;;;;;;;;1472390;40;20457;-80
2021/05/21 05:52:34;;;;;;;22.52;4.68;;;;;;;;;;1475803;40;20513;-80
2021/05/21 05:53:36;;;;;;;20.08;4.28;;;;;;;;;;1478008;40;20402;-80
2021/05/21 05:54:38;;;;;;;17.52;3.85;;;;;;;;;;1479047;40;20414;-80
2021/05/21 05:55:41;;;;;;;24.38;4.05;;;;;;;;;;1478783;40;20699;-80
2021/05/21 05:56:43;;;;;;;24.23;5.03;;;;;;;;;;1474110;40;20442;-83
2021/05/21 05:57:44;;;;;;;15.83;3.87;;;;;;;;;;1466525;40;20407;-80
2021/05/21 05:58:46;;;;;;;24.55;4.55;;;;;;;;;;1470222;40;20436;-80
2021/05/21 05:59:48;;;;;;;16.70;3.35;;;;;;;;;;1474067;40;20419;-80
2021/05/21 06:00:49;;;;;;;20.23;4.00;;;;;;;;;;1469928;40;20771;-80
2021/05/21 06:01:51;;;;;;;20.80;5.33;;;;;;;;;;1462149;40;20542;-82
2021/05/21 06:02:53;;;;;;;21.05;4.32;;;;;;;;;;1469877;40;20429;-82
2021/05/21 06:03:54;;;;;;;20.17;3.88;;;;;;;;;;1473943;40;20432;-82
2021/05/21 06:04:57;;;;;;;24.83;4.03;;;;;;;;;;1469867;40;20425;-80
2021/05/21 06:05:59;;;;;;;25.60;5.05;;;;;;;;;;1469900;40;20528;-81
2021/05/21 06:07:04;;;;;;;19.67;4.75;;;;;;;;;;1474123;40;20451;-81